createdAt,value
2019-04-11T00:00:58.182Z,94.3603
2019-04-11T00:02:01.221Z,94.2351
2019-04-11T00:03:05.057Z,95.2117
2019-04-11T00:04:08.286Z,95.1461
2019-04-11T00:05:11.172Z,94.6654
2019-04-11T00:06:15.246Z,93.9284
2019-04-11T00:07:18.272Z,94.5388
2019-04-11T00:08:21.730Z,94.5022
2019-04-11T00:09:24.887Z,95.5352
2019-04-11T00:10:29.188Z,94.7890
2019-04-11T00:11:32.196Z,94.5830
2019-04-11T00:12:35.191Z,95.8114
2019-04-11T00:13:39.121Z,95.3445
2019-04-11T00:14:42.214Z,94.1344
2019-04-11T00:15:45.187Z,95.4269
2019-04-11T00:16:48.184Z,95.6786
2019-04-11T00:17:52.311Z,92.4086
2019-04-11T00:18:54.743Z,93.7224
2019-04-11T00:19:56.192Z,93.3257
2019-04-11T00:21:00.231Z,93.3654
2019-04-11T00:22:03.506Z,92.9625
2019-04-11T00:23:08.048Z,94.6212
2019-04-11T00:24:12.458Z,94.8547
2019-04-11T00:25:15.670Z,94.1405
2019-04-11T00:26:18.174Z,94.6899
2019-04-11T00:27:21.261Z,95.0042
2019-04-11T00:28:24.181Z,94.1772
2019-04-11T00:29:28.123Z,94.2779
2019-04-11T00:30:32.290Z,95.3628
2019-04-11T00:31:35.181Z,93.8796
2019-04-11T00:32:38.169Z,94.0154
2019-04-11T00:33:42.398Z,93.5256
2019-04-11T00:34:45.194Z,94.4152
2019-04-11T00:35:48.063Z,92.4056
2019-04-11T00:36:51.213Z,93.1456
2019-04-11T00:37:54.181Z,92.8679
2019-04-11T00:38:57.335Z,93.7835
2019-04-11T00:40:01.808Z,92.9580
2019-04-11T00:41:04.301Z,93.5592
2019-04-11T00:42:07.244Z,93.2113
2019-04-11T00:43:11.372Z,92.9671
2019-04-11T00:44:14.678Z,92.6192
2019-04-11T00:45:19.215Z,92.0302
2019-04-11T00:46:22.470Z,93.0785
2019-04-11T00:47:25.198Z,94.5663
2019-04-11T00:48:28.227Z,91.8135
2019-04-11T00:49:31.185Z,92.8115
2019-04-11T00:50:35.011Z,92.0531
2019-04-11T00:51:38.196Z,91.5389
2019-04-11T00:52:41.304Z,90.8980
2019-04-11T00:53:44.498Z,92.1538
2019-04-11T00:54:47.198Z,91.5801
2019-04-11T00:55:51.248Z,91.1604
2019-04-11T00:56:54.706Z,92.1706
2019-04-11T00:57:57.213Z,92.5414
2019-04-11T00:59:00.282Z,91.7586
2019-04-11T01:00:05.219Z,90.6935
2019-04-11T01:01:09.159Z,92.4971
2019-04-11T01:02:12.176Z,92.9641
2019-04-11T01:03:15.206Z,90.8751
2019-04-11T01:04:18.189Z,91.9982
2019-04-11T01:05:21.370Z,92.4056
2019-04-11T01:06:24.194Z,90.5653
2019-04-11T01:07:27.210Z,91.2413
2019-04-11T01:08:31.279Z,91.0079
2019-04-11T01:09:34.720Z,91.5526
2019-04-11T01:10:37.201Z,90.4814
2019-04-11T01:11:40.451Z,91.0735
2019-04-11T01:12:43.204Z,90.3548
2019-04-11T01:13:50.920Z,91.5679
2019-04-11T01:14:55.225Z,90.8537
2019-04-11T01:15:58.211Z,90.6874
2019-04-11T01:17:01.193Z,90.2800
2019-04-11T01:18:04.204Z,89.5033
2019-04-11T01:19:07.306Z,89.8375
2019-04-11T01:20:11.142Z,89.4575
2019-04-11T01:21:14.187Z,91.8425
2019-04-11T01:22:16.220Z,89.9916
2019-04-11T01:23:20.685Z,89.8726
2019-04-11T01:24:23.872Z,89.0394
2019-04-11T01:25:27.201Z,89.3690
2019-04-11T01:26:30.170Z,89.8405
2019-04-11T01:27:34.167Z,88.8716
2019-04-11T01:28:37.190Z,89.3782
2019-04-11T01:29:40.190Z,89.3477
2019-04-11T01:30:42.189Z,89.3095
2019-04-11T01:31:46.148Z,90.6432
2019-04-11T01:32:49.219Z,90.9224
2019-04-11T01:33:53.889Z,90.0526
2019-04-11T01:35:07.179Z,89.3568
2019-04-11T01:36:11.181Z,88.7007
2019-04-11T01:37:15.530Z,88.7983
2019-04-11T01:38:18.205Z,89.0913
2019-04-11T01:39:23.178Z,89.6819
2019-04-11T01:40:26.177Z,90.5745
2019-04-11T01:41:29.258Z,87.8996
2019-04-11T01:42:33.357Z,89.3385
2019-04-11T01:43:36.187Z,88.2673
2019-04-11T01:44:39.184Z,88.7510
2019-04-11T01:45:49.664Z,87.9774
2019-04-11T01:46:52.197Z,90.2586
2019-04-11T01:47:55.586Z,89.0272
2019-04-11T01:48:58.192Z,90.8522
2019-04-11T01:50:01.168Z,91.6899
2019-04-11T01:51:05.303Z,88.6473
2019-04-11T01:52:08.192Z,87.4052
2019-04-11T01:53:11.200Z,90.2769
2019-04-11T01:54:15.251Z,87.7073
2019-04-11T01:55:18.521Z,91.4977
2019-04-11T01:56:21.174Z,88.8899
2019-04-11T01:57:24.192Z,89.4987
2019-04-11T01:58:27.184Z,89.1829
2019-04-11T01:59:31.196Z,89.3416
2019-04-11T02:00:34.419Z,87.9271
2019-04-11T02:01:37.024Z,88.3253
2019-04-11T02:02:40.188Z,88.1804
2019-04-11T02:03:44.237Z,89.1264
2019-04-11T02:04:48.053Z,86.1555
2019-04-11T02:05:51.588Z,87.2862
2019-04-11T02:06:54.184Z,86.5782
2019-04-11T02:07:58.732Z,88.9403
2019-04-11T02:09:01.931Z,89.4255
2019-04-11T02:10:05.420Z,89.3553
2019-04-11T02:11:09.759Z,89.8192
2019-04-11T02:12:12.185Z,90.9346
2019-04-11T02:13:15.413Z,88.4596
2019-04-11T02:14:19.959Z,88.1102
2019-04-11T02:15:25.205Z,85.7862
2019-04-11T02:16:29.283Z,85.7755
2019-04-11T02:17:32.858Z,86.2394
2019-04-11T02:18:37.299Z,86.8467
2019-04-11T02:19:41.228Z,87.8782
2019-04-11T02:20:45.189Z,88.6961
2019-04-11T02:21:49.644Z,88.5237
2019-04-11T02:22:52.847Z,85.8122
2019-04-11T02:23:56.337Z,86.1738
2019-04-11T02:25:00.505Z,86.8376
2019-04-11T02:26:03.172Z,87.3137
2019-04-11T02:27:06.506Z,86.9627
2019-04-11T02:28:09.164Z,87.7501
2019-04-11T02:29:13.251Z,87.2740
2019-04-11T02:30:20.020Z,87.7668
2019-04-11T02:31:26.161Z,87.3274
2019-04-11T02:32:29.407Z,86.9200
2019-04-11T02:33:32.959Z,86.5782
2019-04-11T02:34:37.085Z,85.2949
2019-04-11T02:35:42.334Z,86.6697
2019-04-11T02:36:48.918Z,87.7180
2019-04-11T02:37:52.219Z,86.8650
2019-04-11T02:38:59.004Z,85.9037
2019-04-11T02:40:03.709Z,86.8055
2019-04-11T02:41:10.574Z,87.4052
2019-04-11T02:42:16.920Z,87.0207
2019-04-11T02:43:20.518Z,84.7059
2019-04-11T02:44:45.501Z,84.7547
2019-04-11T02:45:45.208Z,85.8228
2019-04-11T02:46:48.238Z,85.0858
2019-04-11T02:47:51.062Z,85.2995
2019-04-11T02:48:56.702Z,88.5695
2019-04-11T02:50:01.195Z,85.9953
2019-04-11T02:51:06.927Z,87.3091
2019-04-11T02:52:13.371Z,85.4841
2019-04-11T02:53:18.373Z,86.0456
2019-04-11T02:54:44.646Z,85.8442
2019-04-11T02:55:51.865Z,84.8096
2019-04-11T02:56:55.178Z,84.5731
2019-04-11T02:57:59.757Z,84.0818
2019-04-11T02:59:05.450Z,85.3788
2019-04-11T03:00:11.090Z,86.1692
2019-04-11T03:01:17.893Z,85.4368
2019-04-11T03:02:21.504Z,86.2486
2019-04-11T03:03:25.384Z,85.5894
2019-04-11T03:04:28.946Z,84.9714
2019-04-11T03:05:34.521Z,84.8661
2019-04-11T03:06:37.206Z,86.2715
2019-04-11T03:07:42.336Z,85.2964
2019-04-11T03:08:46.487Z,85.6809
2019-04-11T03:09:53.372Z,85.9602
2019-04-11T03:10:57.638Z,84.0497
2019-04-11T03:12:00.782Z,84.2145
2019-04-11T03:13:04.587Z,84.7959
2019-04-11T03:14:09.635Z,86.6560
2019-04-11T03:15:27.179Z,85.1942
2019-04-11T03:16:32.858Z,84.8463
2019-04-11T03:17:36.779Z,86.5461
2019-04-11T03:18:54.806Z,85.5512
2019-04-11T03:20:04.507Z,84.8112
2019-04-11T03:21:02.775Z,86.5095
2019-04-11T03:22:05.647Z,86.2425
2019-04-11T03:23:10.799Z,84.6189
2019-04-11T03:24:17.671Z,84.8158
2019-04-11T03:25:22.521Z,85.7023
2019-04-11T03:26:25.186Z,85.5161
2019-04-11T03:27:30.256Z,84.8753
2019-04-11T03:28:35.591Z,84.9256
2019-04-11T03:29:40.670Z,84.8508
2019-04-11T03:31:07.172Z,84.1184
2019-04-11T03:32:33.501Z,84.3656
2019-04-11T03:37:53.591Z,85.6443
2019-04-11T03:39:00.315Z,85.4246
2019-04-11T03:40:09.697Z,85.0843
2019-04-11T03:41:12.786Z,87.7119
2019-04-11T03:42:17.223Z,84.6723
2019-04-11T03:43:24.092Z,86.3020
2019-04-11T03:44:25.443Z,87.4235
2019-04-11T03:45:49.698Z,86.0685
2019-04-11T03:46:49.255Z,85.5070
2019-04-11T03:48:00.912Z,84.7822
2019-04-11T03:49:01.268Z,84.6235
2019-04-11T03:50:06.055Z,86.0548
2019-04-11T03:51:20.514Z,84.1825
2019-04-11T03:52:25.664Z,86.2974
2019-04-11T03:53:29.908Z,84.0726
2019-04-11T03:54:36.267Z,85.6016
2019-04-11T03:55:39.189Z,84.8615
2019-04-11T03:56:43.354Z,85.8854
2019-04-11T03:57:46.966Z,86.1646
2019-04-11T03:58:50.396Z,86.0197
2019-04-11T03:59:54.545Z,87.7943
2019-04-11T04:01:03.244Z,83.9673
2019-04-11T04:02:07.639Z,83.9643
2019-04-11T04:03:12.099Z,85.3697
2019-04-11T04:04:19.320Z,84.0421
2019-04-11T04:05:26.182Z,87.0481
2019-04-11T04:06:28.832Z,87.7821
2019-04-11T04:07:31.983Z,86.4271
2019-04-11T04:08:36.362Z,86.1112
2019-04-11T04:09:43.801Z,86.4210
2019-04-11T04:10:47.718Z,85.8946
2019-04-11T04:11:51.173Z,86.6789
2019-04-11T04:12:55.684Z,86.4729
2019-04-11T04:13:59.891Z,86.8620
2019-04-11T04:15:06.493Z,87.5608
2019-04-11T04:16:21.652Z,87.3289
2019-04-11T04:17:21.375Z,87.5654
2019-04-11T04:18:25.175Z,90.0893
2019-04-11T04:19:30.409Z,89.1264
2019-04-11T04:20:35.287Z,91.4748
2019-04-11T04:21:38.846Z,88.0369
2019-04-11T04:22:44.057Z,89.6773
2019-04-11T04:23:49.621Z,88.9754
2019-04-11T04:24:53.999Z,88.4215
2019-04-11T04:26:01.221Z,88.1422
2019-04-11T04:27:07.167Z,87.6249
2019-04-11T04:28:13.661Z,90.5699
2019-04-11T04:29:17.943Z,91.3603
2019-04-11T04:30:21.908Z,87.9652
2019-04-11T04:31:26.548Z,89.8009
2019-04-11T04:32:30.410Z,90.7927
2019-04-11T04:33:36.334Z,90.0755
2019-04-11T04:34:42.093Z,88.9296
2019-04-11T04:35:45.190Z,88.8304
2019-04-11T04:36:49.710Z,89.3797
2019-04-11T04:37:52.202Z,89.7826
2019-04-11T04:38:56.930Z,89.9138
2019-04-11T04:40:21.152Z,88.9937
2019-04-11T04:41:22.472Z,88.4871
2019-04-11T04:42:26.405Z,88.6061
2019-04-11T04:43:27.536Z,87.5166
2019-04-11T04:44:33.408Z,87.7958
2019-04-11T04:45:55.146Z,87.1946
2019-04-11T04:46:58.085Z,87.9088
2019-04-11T04:47:56.588Z,87.8630
2019-04-11T04:49:00.186Z,87.4464
2019-04-11T04:50:06.177Z,88.0003
2019-04-11T04:51:11.414Z,87.4846
2019-04-11T04:52:16.457Z,91.1055
2019-04-11T04:53:20.421Z,89.2561
2019-04-11T04:54:25.184Z,89.8405
2019-04-11T04:55:30.292Z,87.0085
2019-04-11T04:56:34.942Z,87.3365
2019-04-11T04:57:40.495Z,87.5120
2019-04-11T04:58:44.455Z,88.3391
2019-04-11T04:59:48.795Z,87.1488
2019-04-11T05:00:54.265Z,88.7648
2019-04-11T05:01:59.396Z,90.2892
2019-04-11T05:03:02.521Z,88.3207
2019-04-11T05:04:06.752Z,88.4688
2019-04-11T05:05:09.571Z,88.6412
2019-04-11T05:06:14.324Z,87.6173
2019-04-11T05:07:19.266Z,87.4464
2019-04-11T05:08:22.862Z,87.3976
2019-04-11T05:09:26.203Z,87.5151
2019-04-11T05:10:30.666Z,88.4947
2019-04-11T05:11:33.955Z,87.4754
2019-04-11T05:12:38.626Z,90.4097
2019-04-11T05:13:45.307Z,89.4194
2019-04-11T05:14:51.799Z,87.9515
2019-04-11T05:16:06.857Z,88.6824
2019-04-11T05:17:04.332Z,87.1824
2019-04-11T05:18:06.324Z,88.2170
2019-04-11T05:19:09.180Z,87.8737
2019-04-11T05:20:14.057Z,90.3868
2019-04-11T05:21:17.192Z,88.8563
2019-04-11T05:22:20.196Z,87.9469
2019-04-11T05:23:23.534Z,87.0939
2019-04-11T05:24:26.432Z,89.1005
2019-04-11T05:25:30.825Z,87.1504
2019-04-11T05:26:33.388Z,86.3752
2019-04-11T05:27:36.193Z,86.1692
2019-04-11T05:28:39.397Z,85.0523
2019-04-11T05:29:42.194Z,85.4597
2019-04-11T05:30:44.984Z,86.6743
2019-04-11T05:31:49.223Z,86.0197
2019-04-11T05:32:52.199Z,85.6031
2019-04-11T05:33:56.072Z,85.9266
2019-04-11T05:34:59.205Z,85.5650
2019-04-11T05:36:02.187Z,86.4683
2019-04-11T05:37:05.206Z,85.5573
2019-04-11T05:38:08.415Z,86.6834
2019-04-11T05:39:11.206Z,85.4566
2019-04-11T05:40:14.849Z,85.2766
2019-04-11T05:41:17.355Z,88.7480
2019-04-11T05:42:22.754Z,86.2654
2019-04-11T05:43:31.884Z,85.9998
2019-04-11T05:44:38.181Z,86.2852
2019-04-11T05:45:43.189Z,86.7567
2019-04-11T05:46:52.408Z,86.5034
2019-04-11T05:47:56.355Z,86.0685
2019-04-11T05:49:00.740Z,86.6407
2019-04-11T05:50:13.542Z,86.3905
2019-04-11T05:51:21.338Z,87.2099
2019-04-11T05:52:27.387Z,88.3772
2019-04-11T05:53:35.323Z,86.6651
2019-04-11T05:54:41.812Z,89.2882
2019-04-11T05:55:47.560Z,86.7643
2019-04-11T05:56:54.735Z,85.2949
2019-04-11T05:57:58.639Z,85.9678
2019-04-11T05:59:01.917Z,86.5461
2019-04-11T06:00:05.541Z,87.2267
2019-04-11T06:01:10.040Z,85.1759
2019-04-11T06:02:15.103Z,85.7816
2019-04-11T06:03:18.197Z,85.9174
2019-04-11T06:04:24.087Z,85.9907
2019-04-11T06:05:32.459Z,87.1214
2019-04-11T06:06:40.178Z,85.8778
2019-04-11T06:07:46.994Z,85.5146
2019-04-11T06:08:50.168Z,85.1637
2019-04-11T06:09:53.190Z,86.3706
2019-04-11T06:10:56.687Z,84.8020
2019-04-11T06:11:59.209Z,86.8757
2019-04-11T06:13:02.501Z,85.3101
2019-04-11T06:14:05.889Z,85.7725
2019-04-11T06:15:11.548Z,86.1418
2019-04-11T06:16:14.618Z,85.2735
2019-04-11T06:17:18.364Z,86.2654
2019-04-11T06:18:27.859Z,86.3386
2019-04-11T06:19:30.348Z,85.2583
2019-04-11T06:20:33.449Z,85.4337
2019-04-11T06:21:36.193Z,85.2171
2019-04-11T06:22:40.254Z,84.4251
2019-04-11T06:23:43.468Z,84.4038
2019-04-11T06:24:46.207Z,84.7013
2019-04-11T06:25:49.283Z,84.6815
2019-04-11T06:26:52.190Z,85.2415
2019-04-11T06:27:55.812Z,84.7593
2019-04-11T06:28:59.101Z,85.8442
2019-04-11T06:30:09.663Z,84.8661
2019-04-11T06:31:33.862Z,85.7023
2019-04-11T06:32:37.366Z,85.2415
2019-04-11T06:33:41.222Z,84.6815
2019-04-11T06:34:44.191Z,85.0797
2019-04-11T06:35:48.267Z,84.4862
2019-04-11T06:36:51.214Z,85.2720
2019-04-11T06:37:54.313Z,85.9281
2019-04-11T06:38:57.198Z,84.3900
2019-04-11T06:40:00.853Z,84.8142
2019-04-11T06:41:06.179Z,84.8020
2019-04-11T06:42:09.203Z,84.2344
2019-04-11T06:43:12.208Z,84.0955
2019-04-11T06:44:16.365Z,85.3559
2019-04-11T06:45:19.709Z,85.3147
2019-04-11T06:46:22.168Z,84.2527
2019-04-11T06:47:25.182Z,84.8600
2019-04-11T06:48:28.215Z,85.0675
2019-04-11T06:49:31.184Z,86.1524
2019-04-11T06:50:35.380Z,83.9918
2019-04-11T06:51:38.491Z,85.0294
2019-04-11T06:52:41.284Z,83.9399
2019-04-11T06:53:44.211Z,85.2308
2019-04-11T06:54:47.518Z,84.2008
2019-04-11T06:55:50.954Z,85.0019
2019-04-11T06:56:54.181Z,83.7949
2019-04-11T06:57:58.414Z,84.6723
2019-04-11T06:59:01.728Z,84.1642
2019-04-11T07:00:05.201Z,84.1291
2019-04-11T07:01:08.269Z,83.9277
2019-04-11T07:02:16.522Z,84.3473
2019-04-11T07:03:23.141Z,83.7629
2019-04-11T07:04:27.385Z,84.9287
2019-04-11T07:05:30.903Z,83.9048
2019-04-11T07:06:34.262Z,83.3143
2019-04-11T07:07:37.749Z,84.5716
2019-04-11T07:08:40.613Z,83.7110
2019-04-11T07:09:43.209Z,84.2145
2019-04-11T07:10:46.726Z,84.8524
2019-04-11T07:11:49.198Z,83.9826
2019-04-11T07:12:54.230Z,84.7913
2019-04-11T07:13:59.182Z,83.7705
2019-04-11T07:15:02.572Z,84.1428
2019-04-11T07:16:05.962Z,83.7156
2019-04-11T07:17:10.395Z,83.7568
2019-04-11T07:18:14.202Z,84.9485
2019-04-11T07:19:17.689Z,84.4633
2019-04-11T07:20:20.756Z,83.9231
2019-04-11T07:21:23.328Z,84.6235
2019-04-11T07:22:26.242Z,83.7446
2019-04-11T07:23:29.198Z,84.7181
2019-04-11T07:24:32.357Z,84.2969
2019-04-11T07:25:35.294Z,83.9277
2019-04-11T07:26:38.234Z,83.2593
2019-04-11T07:27:41.181Z,83.4699
2019-04-11T07:28:44.182Z,83.9597
2019-04-11T07:29:47.204Z,83.4913
2019-04-11T07:30:50.285Z,83.9261
2019-04-11T07:31:53.206Z,83.5569
2019-04-11T07:32:56.251Z,83.8026
2019-04-11T07:34:00.528Z,84.7883
2019-04-11T07:35:04.651Z,84.5914
2019-04-11T07:36:08.354Z,85.9007
2019-04-11T07:37:12.588Z,84.4495
2019-04-11T07:38:16.290Z,85.0156
2019-04-11T07:39:18.183Z,83.5294
2019-04-11T07:40:20.241Z,84.2741
2019-04-11T07:41:23.948Z,84.4862
2019-04-11T07:42:27.285Z,84.5075
2019-04-11T07:43:31.292Z,85.0706
2019-04-11T07:44:34.204Z,84.2008
2019-04-11T07:45:38.519Z,84.9012
2019-04-11T07:46:43.227Z,84.9012
2019-04-11T07:47:46.194Z,85.3971
2019-04-11T07:48:50.210Z,84.9104
2019-04-11T07:49:55.170Z,85.2949
2019-04-11T07:50:59.743Z,84.8203
2019-04-11T07:52:02.530Z,84.9790
2019-04-11T07:53:05.189Z,85.2308
2019-04-11T07:54:09.269Z,84.3381
2019-04-11T07:55:13.138Z,85.2644
2019-04-11T07:56:16.483Z,84.0970
2019-04-11T07:57:19.387Z,85.1774
2019-04-11T07:58:22.183Z,83.8773
2019-04-11T07:59:25.229Z,84.7593
2019-04-11T08:00:38.600Z,84.9485
2019-04-11T08:01:36.297Z,84.2054
2019-04-11T08:02:39.881Z,83.5462
2019-04-11T08:03:43.191Z,84.9424
2019-04-11T08:04:47.300Z,84.8554
2019-04-11T08:05:50.285Z,83.6469
2019-04-11T08:06:53.999Z,83.4928
2019-04-11T08:07:57.410Z,84.7456
2019-04-11T08:09:01.303Z,83.5660
2019-04-11T08:10:04.195Z,84.3076
2019-04-11T08:11:07.197Z,83.5615
2019-04-11T08:12:10.176Z,84.1688
2019-04-11T08:13:14.122Z,84.7456
2019-04-11T08:14:18.325Z,83.9277
2019-04-11T08:15:21.668Z,83.7079
2019-04-11T08:16:24.180Z,84.3763
2019-04-11T08:17:35.524Z,84.8249
2019-04-11T08:18:35.189Z,83.2898
2019-04-11T08:19:38.630Z,84.6861
2019-04-11T08:20:41.563Z,83.2624
2019-04-11T08:21:44.425Z,83.4730
2019-04-11T08:22:47.561Z,83.1296
2019-04-11T08:23:50.179Z,83.0564
2019-04-11T08:24:53.254Z,82.7955
2019-04-11T08:25:56.180Z,83.1083
2019-04-11T08:26:59.186Z,82.4933
2019-04-11T08:28:04.362Z,84.1688
2019-04-11T08:29:12.312Z,83.2364
2019-04-11T08:30:17.243Z,83.3356
2019-04-11T08:31:21.551Z,82.9023
2019-04-11T08:32:25.446Z,84.4251
2019-04-11T08:33:28.796Z,82.9236
2019-04-11T08:34:31.463Z,82.0279
2019-04-11T08:35:34.586Z,82.6780
2019-04-11T08:36:37.993Z,83.1540
2019-04-11T08:37:41.179Z,81.4969
2019-04-11T08:38:44.696Z,81.4862
2019-04-11T08:39:49.078Z,82.4338
2019-04-11T08:40:53.262Z,81.0010
2019-04-11T08:41:56.926Z,82.8595
2019-04-11T08:43:00.191Z,83.0259
2019-04-11T08:44:03.652Z,80.9644
2019-04-11T08:45:06.197Z,82.0035
2019-04-11T08:46:09.197Z,81.5061
2019-04-11T08:47:12.190Z,80.3021
2019-04-11T08:48:15.023Z,81.7670
2019-04-11T08:49:18.427Z,82.6535
2019-04-11T08:50:20.671Z,81.1948
2019-04-11T08:51:23.316Z,80.4761
2019-04-11T08:52:26.215Z,82.6597
2019-04-11T08:53:29.201Z,81.2482
2019-04-11T08:54:33.291Z,80.8499
2019-04-11T08:55:45.561Z,81.3168
2019-04-11T08:56:45.379Z,82.3301
2019-04-11T08:57:48.206Z,81.1383
2019-04-11T08:58:51.202Z,81.2253
2019-04-11T08:59:54.166Z,80.8591
2019-04-11T09:01:00.151Z,81.3184
2019-04-11T09:02:04.523Z,81.0788
2019-04-11T09:03:07.288Z,80.7965
2019-04-11T09:04:11.911Z,82.5895
2019-04-11T09:05:18.771Z,80.3601
2019-04-11T09:06:23.211Z,81.0880
2019-04-11T09:07:27.506Z,82.4155
2019-04-11T09:08:32.253Z,80.4440
2019-04-11T09:09:36.277Z,80.5493
2019-04-11T09:10:40.058Z,80.8774
2019-04-11T09:11:43.243Z,81.8799
2019-04-11T09:12:46.820Z,81.4740
2019-04-11T09:13:49.465Z,81.6159
2019-04-11T09:14:52.666Z,82.4491
2019-04-11T09:15:55.201Z,82.6368
2019-04-11T09:16:58.357Z,80.7919
2019-04-11T09:18:04.707Z,81.7563
2019-04-11T09:19:10.403Z,81.8799
2019-04-11T09:20:13.597Z,81.7288
2019-04-11T09:21:16.210Z,81.5091
2019-04-11T09:22:19.220Z,81.0468
2019-04-11T09:23:22.173Z,81.5961
2019-04-11T09:24:26.265Z,81.1978
2019-04-11T09:25:30.478Z,81.8219
2019-04-11T09:26:34.205Z,80.5570
2019-04-11T09:27:38.408Z,82.3667
2019-04-11T09:28:41.842Z,79.5224
2019-04-11T09:29:46.231Z,82.3926
2019-04-11T09:30:49.462Z,79.9435
2019-04-11T09:31:52.202Z,78.7961
2019-04-11T09:32:56.208Z,80.9110
2019-04-11T09:33:59.543Z,81.5564
2019-04-11T09:35:02.253Z,78.9456
2019-04-11T09:36:05.895Z,78.3429
2019-04-11T09:37:09.433Z,78.7808
2019-04-11T09:38:13.928Z,79.0021
2019-04-11T09:39:17.180Z,80.0031
2019-04-11T09:40:20.416Z,80.2365
2019-04-11T09:41:24.797Z,79.5102
2019-04-11T09:42:28.295Z,79.6200
2019-04-11T09:43:31.780Z,79.2203
2019-04-11T09:44:34.982Z,80.6271
2019-04-11T09:45:38.203Z,80.3388
2019-04-11T09:46:41.192Z,80.7919
2019-04-11T09:47:45.616Z,79.7894
2019-04-11T09:48:48.417Z,80.8331
2019-04-11T09:49:51.586Z,80.4150
2019-04-11T09:50:54.274Z,80.5585
2019-04-11T09:51:58.225Z,81.0620
2019-04-11T09:53:01.566Z,80.4898
2019-04-11T09:54:04.239Z,80.6867
2019-04-11T09:55:08.564Z,80.5158
2019-04-11T09:56:11.296Z,79.9496
2019-04-11T09:57:14.278Z,81.8433
2019-04-11T09:58:17.481Z,80.7309
2019-04-11T09:59:20.965Z,78.8815
2019-04-11T10:00:24.269Z,78.8373
2019-04-11T10:01:27.278Z,81.2726
2019-04-11T10:02:31.079Z,80.7645
2019-04-11T10:03:34.593Z,79.8749
2019-04-11T10:04:37.232Z,80.3098
2019-04-11T10:05:57.218Z,79.1104
2019-04-11T10:07:01.275Z,79.7421
2019-04-11T10:08:08.655Z,79.9252
2019-04-11T10:09:13.523Z,79.6185
2019-04-11T10:10:16.910Z,80.4837
2019-04-11T10:11:20.258Z,79.1058
2019-04-11T10:12:24.205Z,79.8566
2019-04-11T10:13:27.334Z,80.1175
2019-04-11T10:14:31.504Z,80.9384
2019-04-11T10:15:35.519Z,79.8535
2019-04-11T10:16:42.281Z,79.4553
2019-04-11T10:17:46.384Z,78.5336
2019-04-11T10:18:56.299Z,78.1216
2019-04-11T10:20:00.251Z,80.5859
2019-04-11T10:21:05.238Z,78.8220
2019-04-11T10:22:08.931Z,78.8647
2019-04-11T10:23:13.777Z,79.5834
2019-04-11T10:24:20.551Z,78.3276
2019-04-11T10:25:23.394Z,81.6754
2019-04-11T10:26:29.727Z,79.9313
2019-04-11T10:27:32.984Z,80.8957
2019-04-11T10:28:37.504Z,78.2650
2019-04-11T10:29:40.364Z,79.6979
2019-04-11T10:30:44.113Z,78.6862
2019-04-11T10:31:48.521Z,79.5132
2019-04-11T10:32:53.548Z,79.4583
2019-04-11T10:34:03.279Z,79.9908
2019-04-11T10:35:08.203Z,80.2915
2019-04-11T10:36:13.273Z,80.0000
2019-04-11T10:37:17.887Z,78.1765
2019-04-11T10:38:22.439Z,79.1669
2019-04-11T10:39:25.346Z,80.4700
2019-04-11T10:40:28.211Z,81.3138
2019-04-11T10:41:32.641Z,80.4852
2019-04-11T10:42:35.273Z,80.2686
2019-04-11T10:43:57.167Z,80.5524
2019-04-11T10:45:00.367Z,79.8703
2019-04-11T10:46:03.239Z,80.4578
2019-04-11T10:47:08.342Z,81.7670
2019-04-11T10:48:12.247Z,81.7243
2019-04-11T10:49:15.196Z,81.7288
2019-04-11T10:50:21.744Z,80.0961
2019-04-11T10:51:26.948Z,80.3754
2019-04-11T10:52:30.827Z,80.2777
2019-04-11T10:53:35.406Z,80.1968
2019-04-11T10:54:42.936Z,79.8062
2019-04-11T10:55:47.676Z,79.4141
2019-04-11T10:56:50.186Z,80.1312
2019-04-11T10:57:54.087Z,80.3738
2019-04-11T10:58:57.431Z,80.8454
2019-04-11T11:00:00.242Z,81.3367
2019-04-11T11:01:03.968Z,80.1419
2019-04-11T11:02:07.172Z,80.9415
2019-04-11T11:03:11.615Z,81.6022
2019-04-11T11:04:18.033Z,81.3031
2019-04-11T11:05:22.160Z,80.6668
2019-04-11T11:06:27.473Z,82.7054
2019-04-11T11:07:30.790Z,81.4954
2019-04-11T11:08:37.591Z,82.9847
2019-04-11T11:09:40.303Z,82.6597
2019-04-11T11:10:45.884Z,80.9415
2019-04-11T11:11:50.547Z,79.4034
2019-04-11T11:14:05.211Z,80.4517
2019-04-11T11:15:09.292Z,80.3479
2019-04-11T11:16:12.305Z,79.1531
2019-04-11T11:17:28.878Z,79.6109
2019-04-11T11:18:42.643Z,79.4232
2019-04-11T11:19:49.784Z,80.6348
2019-04-11T11:20:50.150Z,79.0509
2019-04-11T11:21:51.262Z,79.2157
2019-04-11T11:22:55.957Z,79.5972
2019-04-11T11:23:59.219Z,78.8922
2019-04-11T11:25:02.403Z,78.9929
2019-04-11T11:26:05.211Z,79.0097
2019-04-11T11:27:09.630Z,78.4924
2019-04-11T11:28:16.423Z,79.5865
2019-04-11T11:29:20.470Z,79.6826
2019-04-11T11:30:27.270Z,79.4598
2019-04-11T11:31:30.298Z,78.3017
2019-04-11T11:32:34.199Z,79.3729
2019-04-11T11:33:38.638Z,81.0391
2019-04-11T11:34:41.232Z,78.7961
2019-04-11T11:35:44.322Z,79.8169
2019-04-11T11:36:48.431Z,81.1154
2019-04-11T11:37:53.412Z,80.9552
2019-04-11T11:38:55.189Z,79.1745
2019-04-11T11:40:02.614Z,78.2269
2019-04-11T11:41:08.540Z,78.7167
2019-04-11T11:42:12.290Z,80.4440
2019-04-11T11:43:15.243Z,79.5605
2019-04-11T11:44:19.480Z,79.9710
2019-04-11T11:45:23.587Z,80.0916
2019-04-11T11:46:26.786Z,81.3825
2019-04-11T11:47:35.674Z,79.2035
2019-04-11T11:48:40.193Z,79.0570
2019-04-11T11:49:51.938Z,79.3256
2019-04-11T11:50:51.494Z,80.3708
2019-04-11T11:51:58.059Z,79.0738
2019-04-11T11:53:08.229Z,78.2177
2019-04-11T11:54:11.489Z,78.9273
2019-04-11T11:55:14.187Z,77.4258
2019-04-11T11:56:17.873Z,78.2055
2019-04-11T11:57:20.454Z,76.8353
2019-04-11T11:58:23.677Z,78.6801
2019-04-11T11:59:27.381Z,79.2248
2019-04-11T12:00:31.752Z,78.6679
2019-04-11T12:01:34.220Z,77.4166
2019-04-11T12:02:37.350Z,78.7625
2019-04-11T12:03:42.339Z,76.0388
2019-04-11T12:04:46.661Z,76.5347
2019-04-11T12:05:52.161Z,76.8673
2019-04-11T12:07:03.615Z,76.9223
2019-04-11T12:08:09.619Z,78.7274
2019-04-11T12:09:14.206Z,76.7849
2019-04-11T12:10:17.446Z,76.4157
2019-04-11T12:11:20.174Z,77.3129
2019-04-11T12:12:23.941Z,76.0952
2019-04-11T12:13:28.311Z,76.5240
2019-04-11T12:14:31.211Z,75.8160
2019-04-11T12:15:35.072Z,77.2061
2019-04-11T12:16:39.703Z,76.2905
2019-04-11T12:17:42.802Z,76.6995
2019-04-11T12:18:49.817Z,76.0769
2019-04-11T12:19:57.442Z,76.2325
2019-04-11T12:21:01.205Z,75.7229
2019-04-11T12:22:04.397Z,75.9335
2019-04-11T12:23:07.210Z,75.1644
2019-04-11T12:24:11.325Z,75.2422
2019-04-11T12:25:14.589Z,75.8709
2019-04-11T12:26:18.299Z,76.9421
2019-04-11T12:27:21.292Z,77.1984
2019-04-11T12:28:25.553Z,75.5169
2019-04-11T12:29:30.210Z,75.7153
2019-04-11T12:30:35.360Z,77.1695
2019-04-11T12:31:38.367Z,76.8353
2019-04-11T12:32:41.225Z,75.4849
2019-04-11T12:33:44.189Z,76.1669
2019-04-11T12:34:47.234Z,75.3903
2019-04-11T12:35:50.777Z,77.1420
2019-04-11T12:36:54.823Z,76.1501
2019-04-11T12:37:59.959Z,76.6888
2019-04-11T12:39:03.244Z,77.1160
2019-04-11T12:40:09.650Z,76.0861
2019-04-11T12:41:21.215Z,77.7874
2019-04-11T12:42:24.185Z,77.7417
2019-04-11T12:43:27.186Z,76.4935
2019-04-11T12:44:30.434Z,76.6155
2019-04-11T12:45:32.200Z,75.1202
2019-04-11T12:46:35.206Z,74.9630
2019-04-11T12:47:39.181Z,76.5423
2019-04-11T12:48:42.184Z,76.6476
2019-04-11T12:49:52.744Z,75.7610
2019-04-11T12:50:53.238Z,75.7275
2019-04-11T12:51:55.497Z,75.8145
2019-04-11T12:52:58.196Z,75.6359
2019-04-11T12:54:01.925Z,75.2880
2019-04-11T12:55:05.225Z,75.9075
2019-04-11T12:56:08.224Z,75.6466
2019-04-11T12:57:12.162Z,75.4177
2019-04-11T12:58:15.201Z,75.7000
2019-04-11T12:59:18.240Z,75.2514
2019-04-11T13:00:22.087Z,75.2575
2019-04-11T13:01:25.212Z,75.7000
2019-04-11T13:02:28.208Z,76.8536
2019-04-11T13:03:32.266Z,76.0204
2019-04-11T13:04:36.282Z,75.7687